sensor_id;sensor_type;location;lat;lon;timestamp;P1;durP1;ratioP1;P2;durP2;ratioP2
47866;SDS011;33628;50.806;11.586;2023-05-29T00:00:50;6.40;;;3.83;;
47866;SDS011;33628;50.806;11.586;2023-05-29T00:08:31;8.27;;;3.88;;
47866;SDS011;33628;50.806;11.586;2023-05-29T00:10:58;7.93;;;3.63;;
47866;SDS011;33628;50.806;11.586;2023-05-29T00:13:27;11.90;;;4.00;;
47866;SDS011;33628;50.806;11.586;2023-05-29T00:15:53;8.25;;;3.83;;
47866;SDS011;33628;50.806;11.586;2023-05-29T00:22:28;8.45;;;4.03;;
47866;SDS011;33628;50.806;11.586;2023-05-29T00:24:58;8.27;;;4.10;;
47866;SDS011;33628;50.806;11.586;2023-05-29T00:30:10;8.23;;;4.45;;
47866;SDS011;33628;50.806;11.586;2023-05-29T00:32:37;7.82;;;3.97;;
47866;SDS011;33628;50.806;11.586;2023-05-29T00:35:05;6.32;;;3.83;;
47866;SDS011;33628;50.806;11.586;2023-05-29T00:37:32;6.38;;;4.00;;
47866;SDS011;33628;50.806;11.586;2023-05-29T00:39:59;7.32;;;4.30;;
47866;SDS011;33628;50.806;11.586;2023-05-29T00:42:26;6.13;;;4.28;;
47866;SDS011;33628;50.806;11.586;2023-05-29T00:44:52;7.53;;;4.40;;
47866;SDS011;33628;50.806;11.586;2023-05-29T00:47:20;8.05;;;4.20;;
47866;SDS011;33628;50.806;11.586;2023-05-29T00:49:47;11.40;;;4.07;;
47866;SDS011;33628;50.806;11.586;2023-05-29T00:52:14;7.22;;;4.57;;
47866;SDS011;33628;50.806;11.586;2023-05-29T00:54:42;6.75;;;4.20;;
47866;SDS011;33628;50.806;11.586;2023-05-29T00:57:09;5.22;;;3.88;;
47866;SDS011;33628;50.806;11.586;2023-05-29T00:59:38;7.80;;;3.92;;
47866;SDS011;33628;50.806;11.586;2023-05-29T01:02:05;6.97;;;4.38;;
47866;SDS011;33628;50.806;11.586;2023-05-29T01:04:34;6.78;;;4.50;;
47866;SDS011;33628;50.806;11.586;2023-05-29T01:07:01;8.80;;;4.45;;
47866;SDS011;33628;50.806;11.586;2023-05-29T01:09:29;8.48;;;4.25;;
47866;SDS011;33628;50.806;11.586;2023-05-29T01:11:57;7.45;;;4.50;;
47866;SDS011;33628;50.806;11.586;2023-05-29T01:14:29;10.25;;;4.20;;
47866;SDS011;33628;50.806;11.586;2023-05-29T01:17:01;9.10;;;4.50;;
47866;SDS011;33628;50.806;11.586;2023-05-29T01:19:45;6.72;;;4.03;;
47866;SDS011;33628;50.806;11.586;2023-05-29T01:22:24;8.48;;;4.78;;
47866;SDS011;33628;50.806;11.586;2023-05-29T01:25:03;9.80;;;5.30;;
47866;SDS011;33628;50.806;11.586;2023-05-29T01:27:36;8.27;;;4.63;;
47866;SDS011;33628;50.806;11.586;2023-05-29T01:30:05;10.15;;;4.72;;
47866;SDS011;33628;50.806;11.586;2023-05-29T01:32:34;8.15;;;4.90;;
47866;SDS011;33628;50.806;11.586;2023-05-29T01:35:01;6.43;;;4.55;;
47866;SDS011;33628;50.806;11.586;2023-05-29T01:37:27;8.15;;;4.47;;
47866;SDS011;33628;50.806;11.586;2023-05-29T01:39:55;9.13;;;4.43;;
47866;SDS011;33628;50.806;11.586;2023-05-29T01:42:22;9.38;;;4.72;;
47866;SDS011;33628;50.806;11.586;2023-05-29T01:44:51;7.63;;;5.82;;
47866;SDS011;33628;50.806;11.586;2023-05-29T01:47:18;9.07;;;4.65;;
47866;SDS011;33628;50.806;11.586;2023-05-29T01:49:45;9.32;;;4.75;;
47866;SDS011;33628;50.806;11.586;2023-05-29T01:52:13;7.13;;;4.47;;
47866;SDS011;33628;50.806;11.586;2023-05-29T01:54:40;7.88;;;4.57;;
47866;SDS011;33628;50.806;11.586;2023-05-29T01:57:06;9.48;;;4.30;;
47866;SDS011;33628;50.806;11.586;2023-05-29T01:59:33;9.00;;;4.70;;
47866;SDS011;33628;50.806;11.586;2023-05-29T02:02:06;8.85;;;4.45;;
47866;SDS011;33628;50.806;11.586;2023-05-29T02:04:33;8.85;;;4.85;;
47866;SDS011;33628;50.806;11.586;2023-05-29T02:07:00;8.57;;;4.72;;
47866;SDS011;33628;50.806;11.586;2023-05-29T02:09:27;11.25;;;4.97;;
47866;SDS011;33628;50.806;11.586;2023-05-29T02:11:53;9.93;;;4.93;;
47866;SDS011;33628;50.806;11.586;2023-05-29T02:14:21;9.95;;;4.30;;
47866;SDS011;33628;50.806;11.586;2023-05-29T02:27:50;6.82;;;4.20;;
47866;SDS011;33628;50.806;11.586;2023-05-29T02:30:20;8.70;;;4.75;;
47866;SDS011;33628;50.806;11.586;2023-05-29T02:32:49;8.88;;;4.95;;
47866;SDS011;33628;50.806;11.586;2023-05-29T02:35:24;9.82;;;5.10;;
47866;SDS011;33628;50.806;11.586;2023-05-29T02:42:01;8.05;;;4.82;;
47866;SDS011;33628;50.806;11.586;2023-05-29T02:44:31;9.95;;;4.80;;
47866;SDS011;33628;50.806;11.586;2023-05-29T02:46:58;6.68;;;4.63;;
47866;SDS011;33628;50.806;11.586;2023-05-29T02:49:24;7.53;;;4.30;;
47866;SDS011;33628;50.806;11.586;2023-05-29T02:51:51;8.50;;;4.82;;
47866;SDS011;33628;50.806;11.586;2023-05-29T02:54:22;8.32;;;4.88;;
47866;SDS011;33628;50.806;11.586;2023-05-29T02:56:48;11.30;;;4.95;;
47866;SDS011;33628;50.806;11.586;2023-05-29T02:59:16;10.80;;;4.93;;
47866;SDS011;33628;50.806;11.586;2023-05-29T03:01:44;8.43;;;4.50;;
47866;SDS011;33628;50.806;11.586;2023-05-29T03:04:11;9.27;;;5.07;;
47866;SDS011;33628;50.806;11.586;2023-05-29T03:06:38;10.50;;;5.05;;
47866;SDS011;33628;50.806;11.586;2023-05-29T03:09:06;6.72;;;4.63;;
47866;SDS011;33628;50.806;11.586;2023-05-29T03:11:32;10.93;;;4.85;;
47866;SDS011;33628;50.806;11.586;2023-05-29T03:14:01;7.63;;;4.50;;
47866;SDS011;33628;50.806;11.586;2023-05-29T03:16:28;8.07;;;5.13;;
47866;SDS011;33628;50.806;11.586;2023-05-29T03:18:57;6.80;;;4.82;;
47866;SDS011;33628;50.806;11.586;2023-05-29T03:21:24;8.80;;;5.15;;
47866;SDS011;33628;50.806;11.586;2023-05-29T03:23:51;7.90;;;4.90;;
47866;SDS011;33628;50.806;11.586;2023-05-29T03:26:19;8.43;;;5.85;;
47866;SDS011;33628;50.806;11.586;2023-05-29T03:28:48;7.75;;;4.85;;
47866;SDS011;33628;50.806;11.586;2023-05-29T03:31:15;7.95;;;5.13;;
47866;SDS011;33628;50.806;11.586;2023-05-29T03:33:42;9.80;;;5.30;;
47866;SDS011;33628;50.806;11.586;2023-05-29T03:36:20;8.38;;;4.82;;
47866;SDS011;33628;50.806;11.586;2023-05-29T03:38:48;9.40;;;4.90;;
47866;SDS011;33628;50.806;11.586;2023-05-29T03:41:14;7.50;;;4.65;;
47866;SDS011;33628;50.806;11.586;2023-05-29T03:43:41;7.78;;;5.00;;
47866;SDS011;33628;50.806;11.586;2023-05-29T03:46:08;6.70;;;4.25;;
47866;SDS011;33628;50.806;11.586;2023-05-29T03:48:36;6.82;;;4.72;;
47866;SDS011;33628;50.806;11.586;2023-05-29T03:51:03;9.38;;;5.60;;
47866;SDS011;33628;50.806;11.586;2023-05-29T03:53:36;10.93;;;5.18;;
47866;SDS011;33628;50.806;11.586;2023-05-29T03:56:03;11.57;;;5.00;;
47866;SDS011;33628;50.806;11.586;2023-05-29T03:58:30;9.98;;;5.93;;
47866;SDS011;33628;50.806;11.586;2023-05-29T04:00:58;9.55;;;5.10;;
47866;SDS011;33628;50.806;11.586;2023-05-29T04:03:26;7.60;;;4.85;;
47866;SDS011;33628;50.806;11.586;2023-05-29T04:05:54;7.07;;;4.50;;
47866;SDS011;33628;50.806;11.586;2023-05-29T04:08:21;9.45;;;4.65;;
47866;SDS011;33628;50.806;11.586;2023-05-29T04:10:49;8.05;;;5.28;;
47866;SDS011;33628;50.806;11.586;2023-05-29T04:13:21;7.97;;;4.80;;
47866;SDS011;33628;50.806;11.586;2023-05-29T04:15:47;8.65;;;4.40;;
47866;SDS011;33628;50.806;11.586;2023-05-29T04:18:16;7.53;;;4.30;;
47866;SDS011;33628;50.806;11.586;2023-05-29T04:20:45;6.95;;;4.10;;
47866;SDS011;33628;50.806;11.586;2023-05-29T04:23:13;8.60;;;5.05;;
47866;SDS011;33628;50.806;11.586;2023-05-29T04:25:40;8.50;;;5.05;;
47866;SDS011;33628;50.806;11.586;2023-05-29T04:28:08;9.75;;;4.85;;
47866;SDS011;33628;50.806;11.586;2023-05-29T04:30:36;8.68;;;5.22;;
47866;SDS011;33628;50.806;11.586;2023-05-29T04:33:04;8.02;;;5.15;;
47866;SDS011;33628;50.806;11.586;2023-05-29T04:35:33;8.52;;;4.75;;
47866;SDS011;33628;50.806;11.586;2023-05-29T04:38:06;7.05;;;5.03;;
47866;SDS011;33628;50.806;11.586;2023-05-29T04:40:33;7.43;;;5.32;;
47866;SDS011;33628;50.806;11.586;2023-05-29T04:43:02;8.65;;;4.45;;
47866;SDS011;33628;50.806;11.586;2023-05-29T04:45:47;7.07;;;4.78;;
47866;SDS011;33628;50.806;11.586;2023-05-29T04:48:14;8.10;;;5.20;;
47866;SDS011;33628;50.806;11.586;2023-05-29T04:50:42;10.65;;;5.50;;
47866;SDS011;33628;50.806;11.586;2023-05-29T04:53:10;11.77;;;5.50;;
47866;SDS011;33628;50.806;11.586;2023-05-29T04:55:39;7.50;;;5.72;;
47866;SDS011;33628;50.806;11.586;2023-05-29T04:58:07;8.40;;;5.05;;
47866;SDS011;33628;50.806;11.586;2023-05-29T05:00:34;8.55;;;5.38;;
47866;SDS011;33628;50.806;11.586;2023-05-29T05:03:02;9.00;;;5.43;;
47866;SDS011;33628;50.806;11.586;2023-05-29T05:05:29;8.70;;;5.65;;
47866;SDS011;33628;50.806;11.586;2023-05-29T05:07:59;8.63;;;5.75;;
47866;SDS011;33628;50.806;11.586;2023-05-29T05:10:27;8.75;;;5.15;;
47866;SDS011;33628;50.806;11.586;2023-05-29T05:12:55;11.10;;;4.95;;
47866;SDS011;33628;50.806;11.586;2023-05-29T05:15:22;9.95;;;5.60;;
47866;SDS011;33628;50.806;11.586;2023-05-29T05:17:48;6.85;;;5.20;;
47866;SDS011;33628;50.806;11.586;2023-05-29T05:20:18;12.88;;;6.03;;
47866;SDS011;33628;50.806;11.586;2023-05-29T05:22:49;9.30;;;5.38;;
47866;SDS011;33628;50.806;11.586;2023-05-29T05:25:16;9.20;;;6.15;;
47866;SDS011;33628;50.806;11.586;2023-05-29T05:27:45;8.73;;;5.60;;
47866;SDS011;33628;50.806;11.586;2023-05-29T05:30:12;8.60;;;5.15;;
47866;SDS011;33628;50.806;11.586;2023-05-29T05:32:39;8.55;;;5.38;;
47866;SDS011;33628;50.806;11.586;2023-05-29T05:35:06;10.93;;;5.80;;
47866;SDS011;33628;50.806;11.586;2023-05-29T05:37:38;10.48;;;5.45;;
47866;SDS011;33628;50.806;11.586;2023-05-29T05:40:05;7.95;;;5.38;;
47866;SDS011;33628;50.806;11.586;2023-05-29T05:42:39;11.25;;;5.78;;
47866;SDS011;33628;50.806;11.586;2023-05-29T05:45:09;10.25;;;5.28;;
47866;SDS011;33628;50.806;11.586;2023-05-29T05:47:36;10.27;;;5.88;;
47866;SDS011;33628;50.806;11.586;2023-05-29T05:50:03;9.90;;;5.35;;
47866;SDS011;33628;50.806;11.586;2023-05-29T05:52:32;8.13;;;5.35;;
47866;SDS011;33628;50.806;11.586;2023-05-29T05:55:02;8.02;;;5.35;;
47866;SDS011;33628;50.806;11.586;2023-05-29T05:57:29;7.65;;;4.35;;
47866;SDS011;33628;50.806;11.586;2023-05-29T05:59:58;9.07;;;4.95;;
47866;SDS011;33628;50.806;11.586;2023-05-29T06:02:26;8.95;;;4.95;;
47866;SDS011;33628;50.806;11.586;2023-05-29T06:04:52;9.82;;;5.03;;
47866;SDS011;33628;50.806;11.586;2023-05-29T06:07:21;11.15;;;5.28;;
47866;SDS011;33628;50.806;11.586;2023-05-29T06:09:48;10.63;;;5.10;;
47866;SDS011;33628;50.806;11.586;2023-05-29T06:12:16;8.25;;;4.85;;
47866;SDS011;33628;50.806;11.586;2023-05-29T06:14:53;8.63;;;5.28;;
47866;SDS011;33628;50.806;11.586;2023-05-29T06:17:20;8.98;;;5.43;;
47866;SDS011;33628;50.806;11.586;2023-05-29T06:19:48;7.57;;;5.35;;
47866;SDS011;33628;50.806;11.586;2023-05-29T06:22:15;7.63;;;4.43;;
47866;SDS011;33628;50.806;11.586;2023-05-29T06:24:44;10.13;;;5.20;;
47866;SDS011;33628;50.806;11.586;2023-05-29T06:27:11;8.90;;;5.03;;
47866;SDS011;33628;50.806;11.586;2023-05-29T06:29:39;10.02;;;5.43;;
47866;SDS011;33628;50.806;11.586;2023-05-29T06:35:08;8.25;;;4.75;;
47866;SDS011;33628;50.806;11.586;2023-05-29T06:37:35;8.60;;;5.32;;
47866;SDS011;33628;50.806;11.586;2023-05-29T06:40:02;11.10;;;5.47;;
47866;SDS011;33628;50.806;11.586;2023-05-29T06:42:31;16.52;;;5.95;;
47866;SDS011;33628;50.806;11.586;2023-05-29T06:45:01;7.53;;;4.80;;
47866;SDS011;33628;50.806;11.586;2023-05-29T06:47:27;10.63;;;4.95;;
47866;SDS011;33628;50.806;11.586;2023-05-29T06:49:54;8.45;;;4.68;;
47866;SDS011;33628;50.806;11.586;2023-05-29T06:52:22;11.68;;;4.55;;
47866;SDS011;33628;50.806;11.586;2023-05-29T06:55:17;10.23;;;5.20;;
47866;SDS011;33628;50.806;11.586;2023-05-29T06:57:45;10.38;;;4.50;;
47866;SDS011;33628;50.806;11.586;2023-05-29T07:00:14;11.00;;;5.75;;
47866;SDS011;33628;50.806;11.586;2023-05-29T07:02:50;10.88;;;5.00;;
47866;SDS011;33628;50.806;11.586;2023-05-29T07:05:17;11.55;;;4.88;;
47866;SDS011;33628;50.806;11.586;2023-05-29T07:07:44;9.77;;;4.55;;
47866;SDS011;33628;50.806;11.586;2023-05-29T07:10:12;9.77;;;4.80;;
47866;SDS011;33628;50.806;11.586;2023-05-29T07:12:39;9.93;;;5.22;;
47866;SDS011;33628;50.806;11.586;2023-05-29T07:15:06;9.93;;;4.63;;
47866;SDS011;33628;50.806;11.586;2023-05-29T07:17:35;9.82;;;4.93;;
47866;SDS011;33628;50.806;11.586;2023-05-29T07:20:13;8.98;;;4.45;;
47866;SDS011;33628;50.806;11.586;2023-05-29T07:22:41;11.70;;;4.93;;
47866;SDS011;33628;50.806;11.586;2023-05-29T07:25:08;10.73;;;4.72;;
47866;SDS011;33628;50.806;11.586;2023-05-29T07:27:35;9.93;;;4.35;;
47866;SDS011;33628;50.806;11.586;2023-05-29T07:30:02;10.40;;;4.63;;
47866;SDS011;33628;50.806;11.586;2023-05-29T07:32:31;8.68;;;5.07;;
47866;SDS011;33628;50.806;11.586;2023-05-29T07:35:00;9.82;;;4.28;;
47866;SDS011;33628;50.806;11.586;2023-05-29T07:37:26;6.90;;;4.43;;
47866;SDS011;33628;50.806;11.586;2023-05-29T07:39:53;9.70;;;4.40;;
47866;SDS011;33628;50.806;11.586;2023-05-29T07:42:58;9.65;;;4.88;;
47866;SDS011;33628;50.806;11.586;2023-05-29T07:49:41;11.43;;;4.50;;
47866;SDS011;33628;50.806;11.586;2023-05-29T07:52:11;8.93;;;4.50;;
47866;SDS011;33628;50.806;11.586;2023-05-29T07:54:38;8.00;;;4.20;;
47866;SDS011;33628;50.806;11.586;2023-05-29T08:00:20;8.90;;;4.18;;
47866;SDS011;33628;50.806;11.586;2023-05-29T08:02:47;8.98;;;4.35;;
47866;SDS011;33628;50.806;11.586;2023-05-29T08:09:37;10.07;;;4.40;;
47866;SDS011;33628;50.806;11.586;2023-05-29T08:12:04;6.60;;;3.90;;
47866;SDS011;33628;50.806;11.586;2023-05-29T08:14:32;7.40;;;3.55;;
47866;SDS011;33628;50.806;11.586;2023-05-29T08:17:01;6.43;;;3.88;;
47866;SDS011;33628;50.806;11.586;2023-05-29T08:19:28;7.95;;;4.20;;
47866;SDS011;33628;50.806;11.586;2023-05-29T08:21:58;11.35;;;4.78;;
47866;SDS011;33628;50.806;11.586;2023-05-29T08:24:24;9.63;;;3.90;;
47866;SDS011;33628;50.806;11.586;2023-05-29T08:26:52;9.15;;;4.50;;
47866;SDS011;33628;50.806;11.586;2023-05-29T08:29:19;9.80;;;4.20;;
47866;SDS011;33628;50.806;11.586;2023-05-29T08:31:46;9.88;;;3.85;;
47866;SDS011;33628;50.806;11.586;2023-05-29T08:34:13;7.40;;;4.00;;
47866;SDS011;33628;50.806;11.586;2023-05-29T08:36:40;6.57;;;4.10;;
47866;SDS011;33628;50.806;11.586;2023-05-29T08:39:07;8.48;;;4.43;;
47866;SDS011;33628;50.806;11.586;2023-05-29T08:41:37;8.82;;;3.97;;
47866;SDS011;33628;50.806;11.586;2023-05-29T08:44:09;6.72;;;3.80;;
47866;SDS011;33628;50.806;11.586;2023-05-29T08:46:38;6.45;;;3.55;;
47866;SDS011;33628;50.806;11.586;2023-05-29T08:49:05;13.02;;;4.65;;
47866;SDS011;33628;50.806;11.586;2023-05-29T08:51:35;9.38;;;4.32;;
47866;SDS011;33628;50.806;11.586;2023-05-29T08:54:04;8.27;;;3.75;;
47866;SDS011;33628;50.806;11.586;2023-05-29T08:56:31;9.75;;;4.18;;
47866;SDS011;33628;50.806;11.586;2023-05-29T08:58:59;7.10;;;3.38;;
47866;SDS011;33628;50.806;11.586;2023-05-29T09:01:29;7.60;;;4.07;;
47866;SDS011;33628;50.806;11.586;2023-05-29T09:03:56;8.38;;;3.85;;
47866;SDS011;33628;50.806;11.586;2023-05-29T09:06:23;7.53;;;3.40;;
47866;SDS011;33628;50.806;11.586;2023-05-29T09:08:51;6.85;;;3.72;;
47866;SDS011;33628;50.806;11.586;2023-05-29T09:11:18;7.45;;;3.90;;
47866;SDS011;33628;50.806;11.586;2023-05-29T09:13:46;6.32;;;3.70;;
47866;SDS011;33628;50.806;11.586;2023-05-29T09:16:12;6.68;;;3.60;;
47866;SDS011;33628;50.806;11.586;2023-05-29T09:18:40;7.72;;;3.60;;
47866;SDS011;33628;50.806;11.586;2023-05-29T09:21:15;7.63;;;3.63;;
47866;SDS011;33628;50.806;11.586;2023-05-29T09:23:52;9.65;;;4.78;;
47866;SDS011;33628;50.806;11.586;2023-05-29T09:26:18;6.38;;;3.95;;
47866;SDS011;33628;50.806;11.586;2023-05-29T09:28:49;6.15;;;3.95;;
47866;SDS011;33628;50.806;11.586;2023-05-29T09:31:16;6.82;;;4.13;;
47866;SDS011;33628;50.806;11.586;2023-05-29T09:33:48;6.82;;;3.70;;
47866;SDS011;33628;50.806;11.586;2023-05-29T09:36:19;7.15;;;3.92;;
47866;SDS011;33628;50.806;11.586;2023-05-29T09:38:47;8.30;;;3.40;;
47866;SDS011;33628;50.806;11.586;2023-05-29T09:41:20;8.30;;;3.55;;
47866;SDS011;33628;50.806;11.586;2023-05-29T09:43:48;7.32;;;3.45;;
47866;SDS011;33628;50.806;11.586;2023-05-29T09:46:15;6.25;;;3.78;;
47866;SDS011;33628;50.806;11.586;2023-05-29T09:48:45;4.97;;;3.50;;
47866;SDS011;33628;50.806;11.586;2023-05-29T09:51:21;6.32;;;3.40;;
47866;SDS011;33628;50.806;11.586;2023-05-29T09:53:48;9.25;;;5.13;;
47866;SDS011;33628;50.806;11.586;2023-05-29T09:56:16;10.05;;;3.80;;
47866;SDS011;33628;50.806;11.586;2023-05-29T10:06:15;6.88;;;4.07;;
47866;SDS011;33628;50.806;11.586;2023-05-29T10:08:46;6.60;;;3.75;;
47866;SDS011;33628;50.806;11.586;2023-05-29T10:11:15;6.65;;;3.42;;
47866;SDS011;33628;50.806;11.586;2023-05-29T10:13:46;6.32;;;3.47;;
47866;SDS011;33628;50.806;11.586;2023-05-29T10:16:15;8.75;;;3.40;;
47866;SDS011;33628;50.806;11.586;2023-05-29T10:18:43;5.55;;;3.08;;
47866;SDS011;33628;50.806;11.586;2023-05-29T10:21:12;7.88;;;3.60;;
47866;SDS011;33628;50.806;11.586;2023-05-29T10:23:39;8.30;;;4.10;;
47866;SDS011;33628;50.806;11.586;2023-05-29T10:26:12;6.07;;;2.80;;
47866;SDS011;33628;50.806;11.586;2023-05-29T10:28:43;7.45;;;3.45;;
47866;SDS011;33628;50.806;11.586;2023-05-29T10:31:14;7.72;;;3.47;;
47866;SDS011;33628;50.806;11.586;2023-05-29T10:33:48;7.57;;;3.50;;
47866;SDS011;33628;50.806;11.586;2023-05-29T10:36:23;9.93;;;3.53;;
47866;SDS011;33628;50.806;11.586;2023-05-29T10:38:52;4.97;;;3.10;;
47866;SDS011;33628;50.806;11.586;2023-05-29T10:41:29;6.80;;;3.35;;
47866;SDS011;33628;50.806;11.586;2023-05-29T10:44:00;7.15;;;3.50;;
47866;SDS011;33628;50.806;11.586;2023-05-29T10:49:38;7.57;;;3.08;;
47866;SDS011;33628;50.806;11.586;2023-05-29T10:52:05;5.45;;;2.90;;
47866;SDS011;33628;50.806;11.586;2023-05-29T10:57:24;8.38;;;3.45;;
47866;SDS011;33628;50.806;11.586;2023-05-29T10:59:58;4.82;;;2.90;;
47866;SDS011;33628;50.806;11.586;2023-05-29T11:02:30;7.03;;;3.42;;
47866;SDS011;33628;50.806;11.586;2023-05-29T11:05:11;8.77;;;3.42;;
47866;SDS011;33628;50.806;11.586;2023-05-29T11:07:52;12.23;;;3.75;;
47866;SDS011;33628;50.806;11.586;2023-05-29T11:13:24;7.05;;;2.83;;
47866;SDS011;33628;50.806;11.586;2023-05-29T11:18:47;5.97;;;3.13;;
47866;SDS011;33628;50.806;11.586;2023-05-29T11:21:25;5.03;;;3.13;;
47866;SDS011;33628;50.806;11.586;2023-05-29T11:23:57;4.05;;;2.78;;
47866;SDS011;33628;50.806;11.586;2023-05-29T11:26:25;4.70;;;2.67;;
47866;SDS011;33628;50.806;11.586;2023-05-29T11:28:54;4.60;;;2.75;;
47866;SDS011;33628;50.806;11.586;2023-05-29T11:31:24;7.65;;;2.67;;
47866;SDS011;33628;50.806;11.586;2023-05-29T11:33:51;8.98;;;2.67;;
47866;SDS011;33628;50.806;11.586;2023-05-29T11:36:22;6.88;;;3.13;;
47866;SDS011;33628;50.806;11.586;2023-05-29T11:38:50;6.78;;;3.47;;
47866;SDS011;33628;50.806;11.586;2023-05-29T11:41:18;4.32;;;2.78;;
47866;SDS011;33628;50.806;11.586;2023-05-29T11:43:45;3.67;;;2.63;;
47866;SDS011;33628;50.806;11.586;2023-05-29T11:46:24;5.50;;;3.20;;
47866;SDS011;33628;50.806;11.586;2023-05-29T11:48:53;6.88;;;3.20;;
47866;SDS011;33628;50.806;11.586;2023-05-29T11:51:19;6.03;;;3.55;;
47866;SDS011;33628;50.806;11.586;2023-05-29T11:53:47;8.68;;;3.00;;
47866;SDS011;33628;50.806;11.586;2023-05-29T11:56:14;6.22;;;3.08;;
47866;SDS011;33628;50.806;11.586;2023-05-29T11:58:41;6.05;;;3.08;;
47866;SDS011;33628;50.806;11.586;2023-05-29T12:01:10;5.78;;;2.90;;
47866;SDS011;33628;50.806;11.586;2023-05-29T12:03:37;5.20;;;3.00;;
47866;SDS011;33628;50.806;11.586;2023-05-29T12:06:05;3.33;;;2.28;;
47866;SDS011;33628;50.806;11.586;2023-05-29T12:08:33;4.18;;;2.35;;
47866;SDS011;33628;50.806;11.586;2023-05-29T12:11:01;4.75;;;2.30;;
47866;SDS011;33628;50.806;11.586;2023-05-29T12:13:28;4.63;;;2.30;;
47866;SDS011;33628;50.806;11.586;2023-05-29T12:15:56;5.68;;;2.53;;
47866;SDS011;33628;50.806;11.586;2023-05-29T12:18:29;4.50;;;2.60;;
47866;SDS011;33628;50.806;11.586;2023-05-29T12:20:59;6.55;;;2.42;;
47866;SDS011;33628;50.806;11.586;2023-05-29T12:23:31;4.10;;;2.40;;
47866;SDS011;33628;50.806;11.586;2023-05-29T12:25:58;6.07;;;2.65;;
47866;SDS011;33628;50.806;11.586;2023-05-29T12:28:25;8.35;;;3.28;;
47866;SDS011;33628;50.806;11.586;2023-05-29T12:30:57;5.45;;;2.80;;
47866;SDS011;33628;50.806;11.586;2023-05-29T12:33:27;6.82;;;3.05;;
47866;SDS011;33628;50.806;11.586;2023-05-29T12:36:06;7.38;;;2.95;;
47866;SDS011;33628;50.806;11.586;2023-05-29T12:38:41;5.82;;;2.83;;
47866;SDS011;33628;50.806;11.586;2023-05-29T12:41:27;5.35;;;2.90;;
47866;SDS011;33628;50.806;11.586;2023-05-29T12:44:01;5.07;;;2.63;;
47866;SDS011;33628;50.806;11.586;2023-05-29T12:46:35;5.03;;;2.50;;
47866;SDS011;33628;50.806;11.586;2023-05-29T12:49:12;4.50;;;2.78;;
47866;SDS011;33628;50.806;11.586;2023-05-29T12:51:40;6.85;;;3.17;;
47866;SDS011;33628;50.806;11.586;2023-05-29T12:54:09;5.78;;;3.42;;
47866;SDS011;33628;50.806;11.586;2023-05-29T12:56:36;5.80;;;2.65;;
47866;SDS011;33628;50.806;11.586;2023-05-29T12:59:05;11.77;;;3.05;;
47866;SDS011;33628;50.806;11.586;2023-05-29T13:01:33;5.50;;;2.80;;
47866;SDS011;33628;50.806;11.586;2023-05-29T13:04:01;5.22;;;2.88;;
47866;SDS011;33628;50.806;11.586;2023-05-29T13:06:29;5.85;;;2.88;;
47866;SDS011;33628;50.806;11.586;2023-05-29T13:08:56;5.35;;;2.72;;
47866;SDS011;33628;50.806;11.586;2023-05-29T13:11:24;5.75;;;3.03;;
47866;SDS011;33628;50.806;11.586;2023-05-29T13:13:52;6.13;;;3.13;;
47866;SDS011;33628;50.806;11.586;2023-05-29T13:16:18;5.60;;;3.10;;
47866;SDS011;33628;50.806;11.586;2023-05-29T13:18:46;6.32;;;2.78;;
47866;SDS011;33628;50.806;11.586;2023-05-29T13:21:13;5.90;;;2.72;;
47866;SDS011;33628;50.806;11.586;2023-05-29T13:23:41;8.52;;;3.10;;
47866;SDS011;33628;50.806;11.586;2023-05-29T13:26:08;7.88;;;3.22;;
47866;SDS011;33628;50.806;11.586;2023-05-29T13:28:35;6.38;;;3.35;;
47866;SDS011;33628;50.806;11.586;2023-05-29T13:31:02;5.65;;;2.80;;
47866;SDS011;33628;50.806;11.586;2023-05-29T13:33:30;7.20;;;2.90;;
47866;SDS011;33628;50.806;11.586;2023-05-29T13:35:57;6.50;;;2.80;;
47866;SDS011;33628;50.806;11.586;2023-05-29T13:38:24;7.68;;;3.03;;
47866;SDS011;33628;50.806;11.586;2023-05-29T13:40:52;7.55;;;2.80;;
47866;SDS011;33628;50.806;11.586;2023-05-29T13:43:20;5.20;;;2.70;;
47866;SDS011;33628;50.806;11.586;2023-05-29T13:45:47;6.35;;;2.60;;
47866;SDS011;33628;50.806;11.586;2023-05-29T13:48:14;7.97;;;2.88;;
47866;SDS011;33628;50.806;11.586;2023-05-29T13:50:46;8.98;;;3.25;;
47866;SDS011;33628;50.806;11.586;2023-05-29T13:53:14;8.82;;;3.13;;
47866;SDS011;33628;50.806;11.586;2023-05-29T13:55:41;6.65;;;2.97;;
47866;SDS011;33628;50.806;11.586;2023-05-29T13:58:11;6.20;;;2.97;;
47866;SDS011;33628;50.806;11.586;2023-05-29T14:00:43;6.70;;;2.92;;
47866;SDS011;33628;50.806;11.586;2023-05-29T14:03:12;6.15;;;3.47;;
47866;SDS011;33628;50.806;11.586;2023-05-29T14:05:40;5.00;;;2.88;;
47866;SDS011;33628;50.806;11.586;2023-05-29T14:08:08;19.80;;;13.40;;
47866;SDS011;33628;50.806;11.586;2023-05-29T14:10:36;5.53;;;3.38;;
47866;SDS011;33628;50.806;11.586;2023-05-29T14:13:02;4.65;;;2.60;;
47866;SDS011;33628;50.806;11.586;2023-05-29T14:15:31;7.13;;;3.10;;
47866;SDS011;33628;50.806;11.586;2023-05-29T14:17:58;7.55;;;2.90;;
47866;SDS011;33628;50.806;11.586;2023-05-29T14:20:25;6.65;;;3.00;;
47866;SDS011;33628;50.806;11.586;2023-05-29T14:22:52;5.28;;;2.80;;
47866;SDS011;33628;50.806;11.586;2023-05-29T14:25:19;5.22;;;2.67;;
47866;SDS011;33628;50.806;11.586;2023-05-29T14:27:46;5.97;;;3.42;;
47866;SDS011;33628;50.806;11.586;2023-05-29T14:30:14;7.13;;;2.38;;
47866;SDS011;33628;50.806;11.586;2023-05-29T14:32:43;5.97;;;2.95;;
47866;SDS011;33628;50.806;11.586;2023-05-29T14:35:10;6.90;;;3.28;;
47866;SDS011;33628;50.806;11.586;2023-05-29T14:37:37;6.13;;;3.30;;
47866;SDS011;33628;50.806;11.586;2023-05-29T14:40:04;8.10;;;3.28;;
47866;SDS011;33628;50.806;11.586;2023-05-29T14:42:31;4.93;;;2.75;;
47866;SDS011;33628;50.806;11.586;2023-05-29T14:44:59;5.65;;;3.17;;
47866;SDS011;33628;50.806;11.586;2023-05-29T14:47:25;3.67;;;2.60;;
47866;SDS011;33628;50.806;11.586;2023-05-29T14:49:54;6.78;;;3.30;;
47866;SDS011;33628;50.806;11.586;2023-05-29T14:52:20;6.22;;;2.92;;
47866;SDS011;33628;50.806;11.586;2023-05-29T14:54:47;7.30;;;2.95;;
47866;SDS011;33628;50.806;11.586;2023-05-29T14:57:14;7.40;;;3.10;;
47866;SDS011;33628;50.806;11.586;2023-05-29T14:59:40;6.68;;;3.00;;
47866;SDS011;33628;50.806;11.586;2023-05-29T15:02:07;4.90;;;3.00;;
47866;SDS011;33628;50.806;11.586;2023-05-29T15:04:36;5.75;;;3.00;;
47866;SDS011;33628;50.806;11.586;2023-05-29T15:07:04;5.47;;;2.78;;
47866;SDS011;33628;50.806;11.586;2023-05-29T15:09:32;6.57;;;2.90;;
47866;SDS011;33628;50.806;11.586;2023-05-29T15:11:58;5.32;;;2.80;;
47866;SDS011;33628;50.806;11.586;2023-05-29T15:14:25;5.30;;;2.85;;
47866;SDS011;33628;50.806;11.586;2023-05-29T15:16:51;6.35;;;2.80;;
47866;SDS011;33628;50.806;11.586;2023-05-29T15:19:20;4.72;;;3.03;;
47866;SDS011;33628;50.806;11.586;2023-05-29T15:21:46;10.70;;;3.05;;
47866;SDS011;33628;50.806;11.586;2023-05-29T15:24:14;5.38;;;3.30;;
47866;SDS011;33628;50.806;11.586;2023-05-29T15:26:41;6.28;;;3.25;;
47866;SDS011;33628;50.806;11.586;2023-05-29T15:29:09;4.75;;;3.17;;
47866;SDS011;33628;50.806;11.586;2023-05-29T15:31:36;7.53;;;3.65;;
47866;SDS011;33628;50.806;11.586;2023-05-29T15:34:02;6.30;;;3.30;;
47866;SDS011;33628;50.806;11.586;2023-05-29T15:36:29;6.43;;;3.10;;
47866;SDS011;33628;50.806;11.586;2023-05-29T15:38:56;6.47;;;3.80;;
47866;SDS011;33628;50.806;11.586;2023-05-29T15:41:24;5.50;;;3.13;;
47866;SDS011;33628;50.806;11.586;2023-05-29T15:43:55;5.53;;;3.22;;